sensor_id;sensor_type;location;lat;lon;timestamp;P1;durP1;ratioP1;P2;durP2;ratioP2
8626;SDS011;4351;51.422;6.794;2022-12-05T00:01:21;44.23;;;23.17;;
8626;SDS011;4351;51.422;6.794;2022-12-05T00:03:53;44.53;;;22.97;;
8626;SDS011;4351;51.422;6.794;2022-12-05T00:06:24;40.37;;;21.83;;
8626;SDS011;4351;51.422;6.794;2022-12-05T00:08:54;42.53;;;22.67;;
8626;SDS011;4351;51.422;6.794;2022-12-05T00:11:23;41.17;;;22.47;;
8626;SDS011;4351;51.422;6.794;2022-12-05T00:13:53;38.80;;;22.87;;
8626;SDS011;4351;51.422;6.794;2022-12-05T00:16:23;44.17;;;23.27;;
8626;SDS011;4351;51.422;6.794;2022-12-05T00:18:53;44.20;;;23.07;;
8626;SDS011;4351;51.422;6.794;2022-12-05T00:21:21;46.70;;;22.73;;
8626;SDS011;4351;51.422;6.794;2022-12-05T00:23:52;40.27;;;22.07;;
8626;SDS011;4351;51.422;6.794;2022-12-05T00:26:22;40.87;;;23.13;;
8626;SDS011;4351;51.422;6.794;2022-12-05T00:28:51;41.40;;;22.43;;
8626;SDS011;4351;51.422;6.794;2022-12-05T00:31:20;42.37;;;22.50;;
8626;SDS011;4351;51.422;6.794;2022-12-05T00:33:49;41.03;;;21.93;;
8626;SDS011;4351;51.422;6.794;2022-12-05T00:36:18;45.77;;;22.17;;
8626;SDS011;4351;51.422;6.794;2022-12-05T00:38:49;42.93;;;24.10;;
8626;SDS011;4351;51.422;6.794;2022-12-05T00:41:19;37.73;;;22.27;;
8626;SDS011;4351;51.422;6.794;2022-12-05T00:43:48;40.43;;;21.63;;
8626;SDS011;4351;51.422;6.794;2022-12-05T00:46:17;41.17;;;22.93;;
8626;SDS011;4351;51.422;6.794;2022-12-05T00:48:46;41.23;;;23.97;;
8626;SDS011;4351;51.422;6.794;2022-12-05T00:51:15;42.63;;;23.50;;
8626;SDS011;4351;51.422;6.794;2022-12-05T00:53:45;40.83;;;24.13;;
8626;SDS011;4351;51.422;6.794;2022-12-05T00:56:16;44.10;;;23.40;;
8626;SDS011;4351;51.422;6.794;2022-12-05T00:58:47;41.83;;;22.63;;
8626;SDS011;4351;51.422;6.794;2022-12-05T01:01:17;40.40;;;22.33;;
8626;SDS011;4351;51.422;6.794;2022-12-05T01:03:47;39.03;;;22.23;;
8626;SDS011;4351;51.422;6.794;2022-12-05T01:06:17;39.87;;;21.83;;
8626;SDS011;4351;51.422;6.794;2022-12-05T01:08:46;40.47;;;22.10;;
8626;SDS011;4351;51.422;6.794;2022-12-05T01:11:16;36.97;;;21.30;;
8626;SDS011;4351;51.422;6.794;2022-12-05T01:13:45;42.47;;;22.40;;
8626;SDS011;4351;51.422;6.794;2022-12-05T01:16:14;39.40;;;22.37;;
8626;SDS011;4351;51.422;6.794;2022-12-05T01:18:42;37.53;;;22.00;;
8626;SDS011;4351;51.422;6.794;2022-12-05T01:21:10;39.17;;;22.53;;
8626;SDS011;4351;51.422;6.794;2022-12-05T01:23:39;37.40;;;21.47;;
8626;SDS011;4351;51.422;6.794;2022-12-05T01:26:07;38.60;;;21.93;;
8626;SDS011;4351;51.422;6.794;2022-12-05T01:28:39;37.60;;;21.87;;
8626;SDS011;4351;51.422;6.794;2022-12-05T01:31:09;39.53;;;21.57;;
8626;SDS011;4351;51.422;6.794;2022-12-05T01:33:43;37.93;;;22.33;;
8626;SDS011;4351;51.422;6.794;2022-12-05T01:36:11;37.93;;;21.43;;
8626;SDS011;4351;51.422;6.794;2022-12-05T01:38:39;36.83;;;22.10;;
8626;SDS011;4351;51.422;6.794;2022-12-05T01:41:10;37.83;;;21.90;;
8626;SDS011;4351;51.422;6.794;2022-12-05T01:43:55;37.93;;;22.40;;
8626;SDS011;4351;51.422;6.794;2022-12-05T01:46:26;42.57;;;22.93;;
8626;SDS011;4351;51.422;6.794;2022-12-05T01:48:56;37.03;;;22.23;;
8626;SDS011;4351;51.422;6.794;2022-12-05T01:51:28;41.13;;;22.33;;
8626;SDS011;4351;51.422;6.794;2022-12-05T01:53:57;37.97;;;22.73;;
8626;SDS011;4351;51.422;6.794;2022-12-05T01:56:25;37.53;;;21.90;;
8626;SDS011;4351;51.422;6.794;2022-12-05T01:58:55;38.73;;;22.53;;
8626;SDS011;4351;51.422;6.794;2022-12-05T02:01:23;36.43;;;21.87;;
8626;SDS011;4351;51.422;6.794;2022-12-05T02:03:51;39.07;;;21.50;;
8626;SDS011;4351;51.422;6.794;2022-12-05T02:06:23;37.67;;;20.80;;
8626;SDS011;4351;51.422;6.794;2022-12-05T02:08:53;39.20;;;22.87;;
8626;SDS011;4351;51.422;6.794;2022-12-05T02:11:21;36.70;;;22.10;;
8626;SDS011;4351;51.422;6.794;2022-12-05T02:13:56;39.00;;;22.27;;
8626;SDS011;4351;51.422;6.794;2022-12-05T02:16:47;37.57;;;21.57;;
8626;SDS011;4351;51.422;6.794;2022-12-05T02:22:41;39.97;;;23.23;;
8626;SDS011;4351;51.422;6.794;2022-12-05T02:25:29;45.23;;;24.03;;
8626;SDS011;4351;51.422;6.794;2022-12-05T02:28:25;39.83;;;21.97;;
8626;SDS011;4351;51.422;6.794;2022-12-05T02:31:07;39.73;;;22.30;;
8626;SDS011;4351;51.422;6.794;2022-12-05T02:33:40;39.53;;;21.97;;
8626;SDS011;4351;51.422;6.794;2022-12-05T02:36:14;39.73;;;22.07;;
8626;SDS011;4351;51.422;6.794;2022-12-05T02:38:50;42.50;;;22.97;;
8626;SDS011;4351;51.422;6.794;2022-12-05T02:41:23;40.70;;;22.83;;
8626;SDS011;4351;51.422;6.794;2022-12-05T02:43:55;38.60;;;21.80;;
8626;SDS011;4351;51.422;6.794;2022-12-05T02:46:28;43.13;;;23.27;;
8626;SDS011;4351;51.422;6.794;2022-12-05T02:48:59;40.50;;;22.83;;
8626;SDS011;4351;51.422;6.794;2022-12-05T02:51:30;38.20;;;21.37;;
8626;SDS011;4351;51.422;6.794;2022-12-05T02:54:03;39.77;;;22.27;;
8626;SDS011;4351;51.422;6.794;2022-12-05T02:56:35;42.23;;;22.80;;
8626;SDS011;4351;51.422;6.794;2022-12-05T02:59:05;44.00;;;24.53;;
8626;SDS011;4351;51.422;6.794;2022-12-05T03:01:34;43.03;;;23.37;;
8626;SDS011;4351;51.422;6.794;2022-12-05T03:04:03;44.97;;;24.23;;
8626;SDS011;4351;51.422;6.794;2022-12-05T03:06:33;39.67;;;22.80;;
8626;SDS011;4351;51.422;6.794;2022-12-05T03:09:07;43.93;;;23.27;;
8626;SDS011;4351;51.422;6.794;2022-12-05T03:11:40;44.53;;;23.77;;
8626;SDS011;4351;51.422;6.794;2022-12-05T03:14:14;46.03;;;23.93;;
8626;SDS011;4351;51.422;6.794;2022-12-05T03:16:49;43.57;;;23.93;;
8626;SDS011;4351;51.422;6.794;2022-12-05T03:19:22;44.70;;;23.33;;
8626;SDS011;4351;51.422;6.794;2022-12-05T03:21:54;44.53;;;22.80;;
8626;SDS011;4351;51.422;6.794;2022-12-05T03:24:26;41.93;;;23.40;;
8626;SDS011;4351;51.422;6.794;2022-12-05T03:26:56;44.13;;;23.07;;
8626;SDS011;4351;51.422;6.794;2022-12-05T03:29:33;41.80;;;22.10;;
8626;SDS011;4351;51.422;6.794;2022-12-05T03:32:07;40.43;;;22.80;;
8626;SDS011;4351;51.422;6.794;2022-12-05T03:34:44;41.33;;;22.60;;
8626;SDS011;4351;51.422;6.794;2022-12-05T03:37:21;38.03;;;20.87;;
8626;SDS011;4351;51.422;6.794;2022-12-05T03:40:00;44.10;;;23.33;;
8626;SDS011;4351;51.422;6.794;2022-12-05T03:42:33;39.23;;;22.00;;
8626;SDS011;4351;51.422;6.794;2022-12-05T03:45:07;42.17;;;22.57;;
8626;SDS011;4351;51.422;6.794;2022-12-05T03:47:43;42.83;;;22.97;;
8626;SDS011;4351;51.422;6.794;2022-12-05T03:50:18;39.70;;;22.20;;
8626;SDS011;4351;51.422;6.794;2022-12-05T03:52:50;42.73;;;22.30;;
8626;SDS011;4351;51.422;6.794;2022-12-05T03:55:42;41.60;;;22.40;;
8626;SDS011;4351;51.422;6.794;2022-12-05T03:58:14;39.27;;;21.57;;
8626;SDS011;4351;51.422;6.794;2022-12-05T04:00:47;41.33;;;21.20;;
8626;SDS011;4351;51.422;6.794;2022-12-05T04:03:21;43.03;;;22.03;;
8626;SDS011;4351;51.422;6.794;2022-12-05T04:05:54;39.67;;;22.77;;
8626;SDS011;4351;51.422;6.794;2022-12-05T04:08:26;43.27;;;22.70;;
8626;SDS011;4351;51.422;6.794;2022-12-05T04:10:59;42.80;;;22.63;;
8626;SDS011;4351;51.422;6.794;2022-12-05T04:13:32;40.13;;;21.93;;
8626;SDS011;4351;51.422;6.794;2022-12-05T04:16:04;42.90;;;22.17;;
8626;SDS011;4351;51.422;6.794;2022-12-05T04:18:57;38.07;;;21.20;;
8626;SDS011;4351;51.422;6.794;2022-12-05T04:21:32;38.10;;;21.10;;
8626;SDS011;4351;51.422;6.794;2022-12-05T04:24:07;41.93;;;21.37;;
8626;SDS011;4351;51.422;6.794;2022-12-05T04:26:58;40.13;;;21.53;;
8626;SDS011;4351;51.422;6.794;2022-12-05T04:29:36;39.27;;;20.40;;
8626;SDS011;4351;51.422;6.794;2022-12-05T04:32:12;39.23;;;20.90;;
8626;SDS011;4351;51.422;6.794;2022-12-05T04:34:43;39.10;;;20.67;;
8626;SDS011;4351;51.422;6.794;2022-12-05T04:37:17;36.30;;;20.13;;
8626;SDS011;4351;51.422;6.794;2022-12-05T04:39:52;36.00;;;20.07;;
8626;SDS011;4351;51.422;6.794;2022-12-05T04:42:26;38.50;;;20.40;;
8626;SDS011;4351;51.422;6.794;2022-12-05T04:44:57;38.37;;;21.10;;
8626;SDS011;4351;51.422;6.794;2022-12-05T04:47:30;35.90;;;20.07;;
8626;SDS011;4351;51.422;6.794;2022-12-05T04:50:04;36.20;;;20.77;;
8626;SDS011;4351;51.422;6.794;2022-12-05T04:52:36;38.23;;;20.83;;
8626;SDS011;4351;51.422;6.794;2022-12-05T04:55:06;35.73;;;19.70;;
8626;SDS011;4351;51.422;6.794;2022-12-05T04:57:39;38.13;;;21.60;;
8626;SDS011;4351;51.422;6.794;2022-12-05T05:00:12;36.60;;;20.63;;
8626;SDS011;4351;51.422;6.794;2022-12-05T05:02:41;40.50;;;21.30;;
8626;SDS011;4351;51.422;6.794;2022-12-05T05:05:15;39.17;;;21.93;;
8626;SDS011;4351;51.422;6.794;2022-12-05T05:07:45;39.50;;;20.70;;
8626;SDS011;4351;51.422;6.794;2022-12-05T05:10:15;36.33;;;21.17;;
8626;SDS011;4351;51.422;6.794;2022-12-05T05:12:46;40.43;;;22.20;;
8626;SDS011;4351;51.422;6.794;2022-12-05T05:15:14;42.63;;;22.20;;
8626;SDS011;4351;51.422;6.794;2022-12-05T05:17:42;41.30;;;23.37;;
8626;SDS011;4351;51.422;6.794;2022-12-05T05:20:10;39.53;;;20.97;;
8626;SDS011;4351;51.422;6.794;2022-12-05T05:22:52;38.63;;;21.87;;
8626;SDS011;4351;51.422;6.794;2022-12-05T05:25:21;41.87;;;22.57;;
8626;SDS011;4351;51.422;6.794;2022-12-05T05:27:49;43.07;;;22.33;;
8626;SDS011;4351;51.422;6.794;2022-12-05T05:30:18;40.03;;;23.23;;
8626;SDS011;4351;51.422;6.794;2022-12-05T05:32:47;43.27;;;22.87;;
8626;SDS011;4351;51.422;6.794;2022-12-05T05:35:15;42.20;;;22.83;;
8626;SDS011;4351;51.422;6.794;2022-12-05T05:37:43;44.17;;;23.03;;
8626;SDS011;4351;51.422;6.794;2022-12-05T05:40:12;40.50;;;22.10;;
8626;SDS011;4351;51.422;6.794;2022-12-05T05:42:41;46.57;;;23.63;;
8626;SDS011;4351;51.422;6.794;2022-12-05T05:45:10;37.33;;;20.93;;
8626;SDS011;4351;51.422;6.794;2022-12-05T05:47:40;39.27;;;21.13;;
8626;SDS011;4351;51.422;6.794;2022-12-05T05:50:09;40.67;;;21.47;;
8626;SDS011;4351;51.422;6.794;2022-12-05T05:52:46;39.10;;;21.23;;
8626;SDS011;4351;51.422;6.794;2022-12-05T05:55:15;40.70;;;21.90;;
8626;SDS011;4351;51.422;6.794;2022-12-05T05:57:44;35.83;;;20.67;;
8626;SDS011;4351;51.422;6.794;2022-12-05T06:00:12;41.70;;;21.67;;
8626;SDS011;4351;51.422;6.794;2022-12-05T06:02:41;40.93;;;20.97;;
8626;SDS011;4351;51.422;6.794;2022-12-05T06:05:09;40.20;;;21.77;;
8626;SDS011;4351;51.422;6.794;2022-12-05T06:07:37;38.73;;;20.83;;
8626;SDS011;4351;51.422;6.794;2022-12-05T06:10:05;34.57;;;19.90;;
8626;SDS011;4351;51.422;6.794;2022-12-05T06:12:35;37.90;;;21.40;;
8626;SDS011;4351;51.422;6.794;2022-12-05T06:15:03;38.70;;;20.57;;
8626;SDS011;4351;51.422;6.794;2022-12-05T06:17:32;36.53;;;20.30;;
8626;SDS011;4351;51.422;6.794;2022-12-05T06:20:00;37.23;;;20.17;;
8626;SDS011;4351;51.422;6.794;2022-12-05T06:22:28;38.23;;;20.00;;
8626;SDS011;4351;51.422;6.794;2022-12-05T06:24:56;38.77;;;20.17;;
8626;SDS011;4351;51.422;6.794;2022-12-05T06:27:26;37.47;;;20.40;;
8626;SDS011;4351;51.422;6.794;2022-12-05T06:29:58;37.10;;;20.10;;
8626;SDS011;4351;51.422;6.794;2022-12-05T06:32:26;32.87;;;19.13;;
8626;SDS011;4351;51.422;6.794;2022-12-05T06:34:55;35.73;;;19.87;;
8626;SDS011;4351;51.422;6.794;2022-12-05T06:37:23;35.60;;;19.23;;
8626;SDS011;4351;51.422;6.794;2022-12-05T06:39:51;32.20;;;18.57;;
8626;SDS011;4351;51.422;6.794;2022-12-05T06:42:19;31.73;;;18.43;;
8626;SDS011;4351;51.422;6.794;2022-12-05T06:44:47;34.77;;;18.90;;
8626;SDS011;4351;51.422;6.794;2022-12-05T06:47:17;32.87;;;19.27;;
8626;SDS011;4351;51.422;6.794;2022-12-05T06:49:45;35.97;;;19.80;;
8626;SDS011;4351;51.422;6.794;2022-12-05T06:52:13;31.43;;;18.47;;
8626;SDS011;4351;51.422;6.794;2022-12-05T06:54:41;32.07;;;18.50;;
8626;SDS011;4351;51.422;6.794;2022-12-05T06:57:09;31.03;;;18.50;;
8626;SDS011;4351;51.422;6.794;2022-12-05T06:59:36;31.63;;;18.63;;
8626;SDS011;4351;51.422;6.794;2022-12-05T07:02:05;33.77;;;19.20;;
8626;SDS011;4351;51.422;6.794;2022-12-05T07:04:35;30.40;;;18.20;;
8626;SDS011;4351;51.422;6.794;2022-12-05T07:07:03;31.40;;;17.73;;
8626;SDS011;4351;51.422;6.794;2022-12-05T07:09:31;31.80;;;17.87;;
8626;SDS011;4351;51.422;6.794;2022-12-05T07:12:17;29.07;;;17.53;;
8626;SDS011;4351;51.422;6.794;2022-12-05T07:14:46;32.17;;;18.30;;
8626;SDS011;4351;51.422;6.794;2022-12-05T07:17:16;29.30;;;17.10;;
8626;SDS011;4351;51.422;6.794;2022-12-05T07:19:47;31.80;;;18.30;;
8626;SDS011;4351;51.422;6.794;2022-12-05T07:22:16;31.53;;;17.30;;
8626;SDS011;4351;51.422;6.794;2022-12-05T07:24:44;29.40;;;16.43;;
8626;SDS011;4351;51.422;6.794;2022-12-05T07:27:13;28.10;;;15.67;;
8626;SDS011;4351;51.422;6.794;2022-12-05T07:29:45;27.57;;;16.67;;
8626;SDS011;4351;51.422;6.794;2022-12-05T07:32:13;30.03;;;17.07;;
8626;SDS011;4351;51.422;6.794;2022-12-05T07:34:41;26.57;;;16.10;;
8626;SDS011;4351;51.422;6.794;2022-12-05T07:37:11;26.27;;;16.73;;
8626;SDS011;4351;51.422;6.794;2022-12-05T07:39:39;27.03;;;15.83;;
8626;SDS011;4351;51.422;6.794;2022-12-05T07:42:07;23.20;;;15.00;;
8626;SDS011;4351;51.422;6.794;2022-12-05T07:44:35;28.57;;;16.83;;
8626;SDS011;4351;51.422;6.794;2022-12-05T07:47:03;26.53;;;16.03;;
8626;SDS011;4351;51.422;6.794;2022-12-05T07:49:32;27.33;;;15.70;;
8626;SDS011;4351;51.422;6.794;2022-12-05T07:52:00;24.00;;;15.33;;
8626;SDS011;4351;51.422;6.794;2022-12-05T07:54:29;24.83;;;15.33;;
8626;SDS011;4351;51.422;6.794;2022-12-05T07:56:57;27.67;;;15.23;;
8626;SDS011;4351;51.422;6.794;2022-12-05T07:59:25;22.17;;;14.37;;
8626;SDS011;4351;51.422;6.794;2022-12-05T08:01:54;23.80;;;15.60;;
8626;SDS011;4351;51.422;6.794;2022-12-05T08:04:22;23.57;;;14.63;;
8626;SDS011;4351;51.422;6.794;2022-12-05T08:06:50;22.47;;;14.60;;
8626;SDS011;4351;51.422;6.794;2022-12-05T08:09:18;20.33;;;13.27;;
8626;SDS011;4351;51.422;6.794;2022-12-05T08:11:48;22.13;;;13.53;;
8626;SDS011;4351;51.422;6.794;2022-12-05T08:14:18;21.47;;;13.87;;
8626;SDS011;4351;51.422;6.794;2022-12-05T08:16:46;24.37;;;14.63;;
8626;SDS011;4351;51.422;6.794;2022-12-05T08:19:15;23.90;;;13.83;;
8626;SDS011;4351;51.422;6.794;2022-12-05T08:21:43;20.10;;;13.27;;
8626;SDS011;4351;51.422;6.794;2022-12-05T08:24:11;20.40;;;12.60;;
8626;SDS011;4351;51.422;6.794;2022-12-05T08:26:39;23.40;;;13.77;;
8626;SDS011;4351;51.422;6.794;2022-12-05T08:29:09;22.33;;;13.20;;
8626;SDS011;4351;51.422;6.794;2022-12-05T08:31:39;19.73;;;13.13;;
8626;SDS011;4351;51.422;6.794;2022-12-05T08:34:12;22.90;;;12.90;;
8626;SDS011;4351;51.422;6.794;2022-12-05T08:36:41;18.63;;;12.70;;
8626;SDS011;4351;51.422;6.794;2022-12-05T08:39:10;21.10;;;12.97;;
8626;SDS011;4351;51.422;6.794;2022-12-05T08:41:41;19.23;;;12.73;;
8626;SDS011;4351;51.422;6.794;2022-12-05T08:44:11;17.47;;;12.27;;
8626;SDS011;4351;51.422;6.794;2022-12-05T08:46:42;18.17;;;12.33;;
8626;SDS011;4351;51.422;6.794;2022-12-05T08:49:13;17.03;;;11.30;;
8626;SDS011;4351;51.422;6.794;2022-12-05T08:51:41;17.80;;;12.10;;
8626;SDS011;4351;51.422;6.794;2022-12-05T08:54:10;17.97;;;12.27;;
8626;SDS011;4351;51.422;6.794;2022-12-05T08:56:38;18.63;;;12.63;;
8626;SDS011;4351;51.422;6.794;2022-12-05T08:59:06;17.43;;;11.40;;
8626;SDS011;4351;51.422;6.794;2022-12-05T09:01:36;18.20;;;11.87;;
8626;SDS011;4351;51.422;6.794;2022-12-05T09:04:05;18.13;;;12.00;;
8626;SDS011;4351;51.422;6.794;2022-12-05T09:06:34;16.63;;;11.03;;
8626;SDS011;4351;51.422;6.794;2022-12-05T09:09:05;17.83;;;11.93;;
8626;SDS011;4351;51.422;6.794;2022-12-05T09:11:35;18.17;;;11.80;;
8626;SDS011;4351;51.422;6.794;2022-12-05T09:14:06;18.07;;;11.63;;
8626;SDS011;4351;51.422;6.794;2022-12-05T09:16:36;20.27;;;12.47;;
8626;SDS011;4351;51.422;6.794;2022-12-05T09:19:07;15.17;;;11.13;;
8626;SDS011;4351;51.422;6.794;2022-12-05T09:21:38;18.93;;;11.83;;
8626;SDS011;4351;51.422;6.794;2022-12-05T09:24:06;17.73;;;12.07;;
8626;SDS011;4351;51.422;6.794;2022-12-05T09:26:37;16.80;;;12.10;;
8626;SDS011;4351;51.422;6.794;2022-12-05T09:29:06;18.43;;;11.83;;
8626;SDS011;4351;51.422;6.794;2022-12-05T09:31:43;15.87;;;11.30;;
8626;SDS011;4351;51.422;6.794;2022-12-05T09:34:11;18.03;;;11.47;;
8626;SDS011;4351;51.422;6.794;2022-12-05T09:36:41;24.47;;;12.20;;
8626;SDS011;4351;51.422;6.794;2022-12-05T09:39:09;18.20;;;11.90;;
8626;SDS011;4351;51.422;6.794;2022-12-05T09:41:51;16.40;;;11.50;;
8626;SDS011;4351;51.422;6.794;2022-12-05T09:44:40;17.43;;;11.80;;
8626;SDS011;4351;51.422;6.794;2022-12-05T09:47:16;16.37;;;11.43;;
8626;SDS011;4351;51.422;6.794;2022-12-05T09:49:54;16.33;;;11.80;;
8626;SDS011;4351;51.422;6.794;2022-12-05T09:52:28;18.47;;;12.07;;
8626;SDS011;4351;51.422;6.794;2022-12-05T09:54:59;15.70;;;11.40;;
8626;SDS011;4351;51.422;6.794;2022-12-05T09:57:34;16.50;;;12.20;;
8626;SDS011;4351;51.422;6.794;2022-12-05T10:00:05;16.03;;;11.60;;
8626;SDS011;4351;51.422;6.794;2022-12-05T10:02:38;18.27;;;12.23;;
8626;SDS011;4351;51.422;6.794;2022-12-05T10:05:14;19.43;;;12.07;;
8626;SDS011;4351;51.422;6.794;2022-12-05T10:07:50;15.93;;;11.33;;
8626;SDS011;4351;51.422;6.794;2022-12-05T10:10:27;16.30;;;11.70;;
8626;SDS011;4351;51.422;6.794;2022-12-05T10:13:16;18.87;;;12.87;;
8626;SDS011;4351;51.422;6.794;2022-12-05T10:15:54;19.80;;;13.27;;
8626;SDS011;4351;51.422;6.794;2022-12-05T10:18:28;19.10;;;12.80;;
8626;SDS011;4351;51.422;6.794;2022-12-05T10:21:04;21.50;;;13.43;;
8626;SDS011;4351;51.422;6.794;2022-12-05T10:23:45;19.13;;;13.23;;
8626;SDS011;4351;51.422;6.794;2022-12-05T10:26:25;19.07;;;12.83;;
8626;SDS011;4351;51.422;6.794;2022-12-05T10:28:58;17.73;;;13.40;;
8626;SDS011;4351;51.422;6.794;2022-12-05T10:31:35;18.53;;;12.87;;
8626;SDS011;4351;51.422;6.794;2022-12-05T10:34:09;21.17;;;14.13;;
8626;SDS011;4351;51.422;6.794;2022-12-05T10:36:42;20.77;;;14.33;;
8626;SDS011;4351;51.422;6.794;2022-12-05T10:39:19;21.20;;;14.90;;
8626;SDS011;4351;51.422;6.794;2022-12-05T10:41:49;22.47;;;15.73;;
8626;SDS011;4351;51.422;6.794;2022-12-05T10:44:17;22.80;;;15.87;;
8626;SDS011;4351;51.422;6.794;2022-12-05T10:46:45;19.37;;;14.37;;
8626;SDS011;4351;51.422;6.794;2022-12-05T10:49:14;20.43;;;14.60;;
8626;SDS011;4351;51.422;6.794;2022-12-05T10:51:43;20.17;;;14.30;;
8626;SDS011;4351;51.422;6.794;2022-12-05T10:54:14;20.70;;;14.70;;
8626;SDS011;4351;51.422;6.794;2022-12-05T10:56:45;19.77;;;14.47;;
8626;SDS011;4351;51.422;6.794;2022-12-05T10:59:14;17.67;;;13.23;;
8626;SDS011;4351;51.422;6.794;2022-12-05T11:01:46;20.20;;;13.70;;
8626;SDS011;4351;51.422;6.794;2022-12-05T11:04:29;21.17;;;14.50;;
8626;SDS011;4351;51.422;6.794;2022-12-05T11:07:09;20.97;;;14.17;;
8626;SDS011;4351;51.422;6.794;2022-12-05T11:09:51;19.33;;;14.07;;
8626;SDS011;4351;51.422;6.794;2022-12-05T11:12:21;19.63;;;14.27;;
8626;SDS011;4351;51.422;6.794;2022-12-05T11:14:55;22.10;;;13.83;;
8626;SDS011;4351;51.422;6.794;2022-12-05T11:17:29;20.23;;;13.83;;
8626;SDS011;4351;51.422;6.794;2022-12-05T11:19:59;19.90;;;13.63;;
8626;SDS011;4351;51.422;6.794;2022-12-05T11:22:29;21.23;;;14.60;;
8626;SDS011;4351;51.422;6.794;2022-12-05T11:24:59;19.17;;;14.10;;
8626;SDS011;4351;51.422;6.794;2022-12-05T11:27:27;19.70;;;14.33;;
8626;SDS011;4351;51.422;6.794;2022-12-05T11:29:58;20.20;;;14.33;;
8626;SDS011;4351;51.422;6.794;2022-12-05T11:32:28;18.47;;;13.77;;
8626;SDS011;4351;51.422;6.794;2022-12-05T11:35:02;20.70;;;14.10;;
8626;SDS011;4351;51.422;6.794;2022-12-05T11:37:39;19.50;;;13.77;;
8626;SDS011;4351;51.422;6.794;2022-12-05T11:40:11;16.53;;;12.53;;
8626;SDS011;4351;51.422;6.794;2022-12-05T11:42:46;22.23;;;15.17;;
8626;SDS011;4351;51.422;6.794;2022-12-05T11:45:43;19.67;;;14.03;;
8626;SDS011;4351;51.422;6.794;2022-12-05T11:48:35;18.87;;;13.63;;
8626;SDS011;4351;51.422;6.794;2022-12-05T11:51:18;15.03;;;11.97;;
8626;SDS011;4351;51.422;6.794;2022-12-05T11:57:13;17.80;;;13.23;;
8626;SDS011;4351;51.422;6.794;2022-12-05T12:00:03;16.43;;;12.57;;
8626;SDS011;4351;51.422;6.794;2022-12-05T12:02:41;16.57;;;12.83;;
8626;SDS011;4351;51.422;6.794;2022-12-05T12:05:29;18.07;;;12.77;;
8626;SDS011;4351;51.422;6.794;2022-12-05T12:08:08;15.83;;;12.10;;
8626;SDS011;4351;51.422;6.794;2022-12-05T12:10:49;19.50;;;13.27;;
8626;SDS011;4351;51.422;6.794;2022-12-05T12:13:40;17.03;;;12.90;;
8626;SDS011;4351;51.422;6.794;2022-12-05T12:16:18;16.63;;;13.07;;
8626;SDS011;4351;51.422;6.794;2022-12-05T12:19:08;16.27;;;12.63;;
8626;SDS011;4351;51.422;6.794;2022-12-05T12:21:50;19.70;;;14.20;;
8626;SDS011;4351;51.422;6.794;2022-12-05T12:24:35;18.70;;;13.53;;
8626;SDS011;4351;51.422;6.794;2022-12-05T12:27:19;16.93;;;13.47;;
8626;SDS011;4351;51.422;6.794;2022-12-05T12:30:01;18.47;;;14.07;;
8626;SDS011;4351;51.422;6.794;2022-12-05T12:32:34;18.20;;;13.63;;
8626;SDS011;4351;51.422;6.794;2022-12-05T12:35:26;17.43;;;13.33;;
8626;SDS011;4351;51.422;6.794;2022-12-05T12:37:59;17.50;;;13.73;;
8626;SDS011;4351;51.422;6.794;2022-12-05T12:40:47;18.60;;;14.00;;
8626;SDS011;4351;51.422;6.794;2022-12-05T12:43:20;19.60;;;14.00;;
8626;SDS011;4351;51.422;6.794;2022-12-05T12:46:24;21.30;;;14.80;;
8626;SDS011;4351;51.422;6.794;2022-12-05T12:49:04;19.10;;;13.87;;
8626;SDS011;4351;51.422;6.794;2022-12-05T12:51:52;22.27;;;14.70;;
8626;SDS011;4351;51.422;6.794;2022-12-05T12:54:27;19.93;;;14.63;;
8626;SDS011;4351;51.422;6.794;2022-12-05T12:57:36;21.83;;;15.03;;
8626;SDS011;4351;51.422;6.794;2022-12-05T13:00:19;19.87;;;14.07;;
8626;SDS011;4351;51.422;6.794;2022-12-05T13:02:51;20.17;;;14.70;;
8626;SDS011;4351;51.422;6.794;2022-12-05T13:05:25;20.73;;;15.03;;
8626;SDS011;4351;51.422;6.794;2022-12-05T13:08:00;20.07;;;14.80;;
8626;SDS011;4351;51.422;6.794;2022-12-05T13:10:34;19.17;;;13.83;;
8626;SDS011;4351;51.422;6.794;2022-12-05T13:13:09;21.77;;;16.33;;
8626;SDS011;4351;51.422;6.794;2022-12-05T13:15:40;22.20;;;14.80;;
8626;SDS011;4351;51.422;6.794;2022-12-05T13:18:14;18.97;;;14.63;;
8626;SDS011;4351;51.422;6.794;2022-12-05T13:20:45;20.67;;;14.53;;
8626;SDS011;4351;51.422;6.794;2022-12-05T13:23:17;19.07;;;14.43;;
8626;SDS011;4351;51.422;6.794;2022-12-05T13:25:48;19.00;;;14.57;;
8626;SDS011;4351;51.422;6.794;2022-12-05T13:28:22;19.63;;;14.33;;
8626;SDS011;4351;51.422;6.794;2022-12-05T13:30:54;20.90;;;14.40;;
8626;SDS011;4351;51.422;6.794;2022-12-05T13:33:30;19.20;;;14.10;;
8626;SDS011;4351;51.422;6.794;2022-12-05T13:36:04;20.07;;;14.03;;
8626;SDS011;4351;51.422;6.794;2022-12-05T13:38:59;21.57;;;14.80;;
8626;SDS011;4351;51.422;6.794;2022-12-05T13:41:49;20.07;;;14.03;;
8626;SDS011;4351;51.422;6.794;2022-12-05T13:44:39;21.47;;;14.97;;
8626;SDS011;4351;51.422;6.794;2022-12-05T13:47:19;20.70;;;15.80;;
8626;SDS011;4351;51.422;6.794;2022-12-05T13:49:54;22.30;;;15.43;;
8626;SDS011;4351;51.422;6.794;2022-12-05T13:52:28;24.30;;;14.93;;
8626;SDS011;4351;51.422;6.794;2022-12-05T13:54:59;21.63;;;15.00;;
8626;SDS011;4351;51.422;6.794;2022-12-05T13:57:51;19.00;;;13.90;;
8626;SDS011;4351;51.422;6.794;2022-12-05T14:03:14;19.97;;;14.90;;
8626;SDS011;4351;51.422;6.794;2022-12-05T14:05:45;18.93;;;14.63;;
8626;SDS011;4351;51.422;6.794;2022-12-05T14:11:22;19.20;;;14.97;;
8626;SDS011;4351;51.422;6.794;2022-12-05T14:13:50;21.30;;;14.90;;
8626;SDS011;4351;51.422;6.794;2022-12-05T14:22:21;21.20;;;15.47;;
8626;SDS011;4351;51.422;6.794;2022-12-05T14:25:05;24.43;;;16.37;;
8626;SDS011;4351;51.422;6.794;2022-12-05T14:27:45;24.33;;;16.27;;
8626;SDS011;4351;51.422;6.794;2022-12-05T14:30:22;21.73;;;15.60;;
8626;SDS011;4351;51.422;6.794;2022-12-05T14:32:59;25.33;;;15.83;;
8626;SDS011;4351;51.422;6.794;2022-12-05T14:35:28;21.83;;;15.37;;
8626;SDS011;4351;51.422;6.794;2022-12-05T14:37:59;22.03;;;15.13;;
8626;SDS011;4351;51.422;6.794;2022-12-05T14:40:30;19.47;;;14.40;;
8626;SDS011;4351;51.422;6.794;2022-12-05T14:43:01;23.13;;;15.57;;
8626;SDS011;4351;51.422;6.794;2022-12-05T14:45:34;24.93;;;15.13;;
8626;SDS011;4351;51.422;6.794;2022-12-05T14:48:26;20.73;;;14.63;;
8626;SDS011;4351;51.422;6.794;2022-12-05T14:50:57;21.47;;;14.50;;
8626;SDS011;4351;51.422;6.794;2022-12-05T14:53:31;25.17;;;14.67;;
8626;SDS011;4351;51.422;6.794;2022-12-05T14:56:04;18.60;;;13.33;;
8626;SDS011;4351;51.422;6.794;2022-12-05T14:58:40;19.33;;;12.73;;
8626;SDS011;4351;51.422;6.794;2022-12-05T15:01:15;19.87;;;13.37;;
8626;SDS011;4351;51.422;6.794;2022-12-05T15:03:56;19.47;;;12.93;;
8626;SDS011;4351;51.422;6.794;2022-12-05T15:06:44;17.77;;;12.27;;
8626;SDS011;4351;51.422;6.794;2022-12-05T15:09:29;18.47;;;12.60;;
8626;SDS011;4351;51.422;6.794;2022-12-05T15:12:06;19.57;;;12.20;;
8626;SDS011;4351;51.422;6.794;2022-12-05T15:14:41;18.97;;;13.53;;
8626;SDS011;4351;51.422;6.794;2022-12-05T15:17:15;20.90;;;13.53;;
8626;SDS011;4351;51.422;6.794;2022-12-05T15:19:52;21.10;;;13.83;;
8626;SDS011;4351;51.422;6.794;2022-12-05T15:22:29;16.93;;;13.20;;
8626;SDS011;4351;51.422;6.794;2022-12-05T15:25:12;17.43;;;13.17;;
8626;SDS011;4351;51.422;6.794;2022-12-05T15:27:50;19.30;;;14.23;;
8626;SDS011;4351;51.422;6.794;2022-12-05T15:30:19;22.33;;;14.87;;
8626;SDS011;4351;51.422;6.794;2022-12-05T15:32:47;20.20;;;13.80;;
8626;SDS011;4351;51.422;6.794;2022-12-05T15:35:23;19.63;;;13.93;;
8626;SDS011;4351;51.422;6.794;2022-12-05T15:37:54;17.43;;;12.20;;
8626;SDS011;4351;51.422;6.794;2022-12-05T15:40:25;17.60;;;13.07;;
8626;SDS011;4351;51.422;6.794;2022-12-05T15:43:20;16.80;;;12.73;;